Aviation Digital Data Service (ADDS)

Output produced by TAFs form (0454 UTC 30 March 2017)
found at http://www.aviationweather.gov/adds/tafs/
 
METAR text: RJSC 300400Z 23009KT 210V270 9999 FEW035 SCT040 BKN060 15/01 Q1015
Conditions at: RJSC (YAMAGATA(CIV/JGS, JP) observed 0400 UTC 30 March 2017
Temperature: 15.0°C (59°F)
Dewpoint: 1.0°C (34°F) [RH = 39%]
Pressure (altimeter): 29.97 inches Hg (1015.0 mb)
Winds: from the SW (230 degrees) at 10 MPH (9 knots; 4.7 m/s)
Visibility: 6 or more miles (10+ km)
Ceiling: 6000 feet AGL
Clouds: few clouds at 3500 feet AGL
scattered clouds at 4000 feet AGL
broken clouds at 6000 feet AGL
Weather: no significant weather observed at this time